createdAt,value
2018-07-04T00:02:36.450Z,1.70
2018-07-04T00:05:30.309Z,2.77
2018-07-04T00:08:23.929Z,2.30
2018-07-04T00:11:17.432Z,2.70
2018-07-04T00:14:11.062Z,2.07
2018-07-04T00:17:04.490Z,2.27
2018-07-04T00:19:58.104Z,2.43
2018-07-04T00:22:51.701Z,1.80
2018-07-04T00:25:45.527Z,2.50
2018-07-04T00:28:39.452Z,2.43
2018-07-04T00:31:33.465Z,2.47
2018-07-04T00:34:27.222Z,2.83
2018-07-04T00:37:20.890Z,2.83
2018-07-04T00:40:14.623Z,1.83
2018-07-04T00:43:08.152Z,2.60
2018-07-04T00:46:01.578Z,3.37
2018-07-04T00:48:55.003Z,2.53
2018-07-04T00:51:48.597Z,2.97
2018-07-04T00:54:42.183Z,2.63
2018-07-04T00:57:35.849Z,2.70
2018-07-04T01:00:29.639Z,2.70
2018-07-04T01:03:17.472Z,2.80
2018-07-04T01:06:10.974Z,3.23
2018-07-04T01:09:05.114Z,2.60
2018-07-04T01:11:58.706Z,2.60
2018-07-04T01:14:52.271Z,2.73
2018-07-04T01:17:45.887Z,2.63
2018-07-04T01:20:44.887Z,3.10
2018-07-04T01:23:38.366Z,3.40
2018-07-04T01:26:32.321Z,3.90
2018-07-04T01:29:26.371Z,3.23
2018-07-04T01:32:19.789Z,3.10
2018-07-04T01:35:07.772Z,3.77
2018-07-04T01:38:02.956Z,2.77
2018-07-04T01:40:56.523Z,3.77
2018-07-04T01:43:49.984Z,3.33
2018-07-04T01:46:43.588Z,3.20
2018-07-04T01:49:37.119Z,3.30
2018-07-04T01:52:30.857Z,2.80
2018-07-04T01:55:24.497Z,3.30
2018-07-04T01:58:18.038Z,3.20
2018-07-04T02:01:11.674Z,3.00
2018-07-04T02:03:59.296Z,3.33
2018-07-04T02:06:52.755Z,3.50
2018-07-04T02:09:47.604Z,3.60
2018-07-04T02:12:41.494Z,3.63
2018-07-04T02:15:35.310Z,3.00
2018-07-04T02:18:28.770Z,3.43
2018-07-04T02:21:22.367Z,4.03
2018-07-04T02:24:15.953Z,4.53
2018-07-04T02:27:03.512Z,4.03
2018-07-04T02:29:51.011Z,4.27
2018-07-04T02:32:44.633Z,4.00
2018-07-04T02:35:38.294Z,5.00
2018-07-04T02:38:31.897Z,5.53
2018-07-04T02:41:25.510Z,5.13
2018-07-04T02:44:19.455Z,4.13
2018-07-04T02:47:18.387Z,4.37
2018-07-04T02:50:12.198Z,4.33
2018-07-04T02:53:05.879Z,4.10
2018-07-04T02:55:59.499Z,3.93
2018-07-04T02:58:53.324Z,4.60
2018-07-04T03:01:47.306Z,3.97
2018-07-04T03:04:34.887Z,4.73
2018-07-04T03:07:28.308Z,4.23
2018-07-04T03:10:21.879Z,4.10
2018-07-04T03:13:15.499Z,4.03
2018-07-04T03:16:09.397Z,3.20
2018-07-04T03:18:57.007Z,4.03
2018-07-04T03:21:50.449Z,4.30
2018-07-04T03:24:44.081Z,3.37
2018-07-04T03:27:37.557Z,3.97
2018-07-04T03:30:25.113Z,4.30
2018-07-04T03:33:18.673Z,3.63
2018-07-04T03:36:12.377Z,3.23
2018-07-04T03:39:06.869Z,3.10
2018-07-04T03:42:00.676Z,3.73
2018-07-04T03:44:54.465Z,3.30
2018-07-04T03:47:48.733Z,4.07
2018-07-04T03:50:42.270Z,3.00
2018-07-04T03:53:37.829Z,3.53
2018-07-04T03:56:32.078Z,4.10
2018-07-04T03:59:25.915Z,3.57
2018-07-04T04:02:19.722Z,3.03
2018-07-04T04:05:13.787Z,3.27
2018-07-04T04:08:07.581Z,2.73
2018-07-04T04:11:01.346Z,2.30
2018-07-04T04:13:55.044Z,2.70
2018-07-04T04:16:49.023Z,2.93
2018-07-04T04:19:42.960Z,2.60
2018-07-04T04:22:36.552Z,3.20
2018-07-04T04:25:30.283Z,2.67
2018-07-04T04:28:24.105Z,2.73
2018-07-04T04:31:18.047Z,2.67
2018-07-04T04:34:11.820Z,3.00
2018-07-04T04:37:05.604Z,2.60
2018-07-04T04:40:06.299Z,2.27
2018-07-04T04:43:00.021Z,2.30
2018-07-04T04:45:53.616Z,3.87
2018-07-04T04:48:47.490Z,4.57
2018-07-04T04:51:41.065Z,3.90
2018-07-04T04:54:34.746Z,3.47
2018-07-04T04:57:28.477Z,3.20
2018-07-04T05:00:16.407Z,3.20
2018-07-04T05:03:10.077Z,3.50
2018-07-04T05:06:03.949Z,2.57
2018-07-04T05:08:57.590Z,3.53
2018-07-04T05:11:51.687Z,2.80
2018-07-04T05:14:45.183Z,3.23
2018-07-04T05:21:10.832Z,3.30
2018-07-04T05:24:04.426Z,2.87
2018-07-04T05:26:57.952Z,2.87
2018-07-04T05:29:55.383Z,3.10
2018-07-04T05:32:48.965Z,3.00
2018-07-04T05:35:42.787Z,3.33
2018-07-04T05:38:36.521Z,3.27
2018-07-04T05:41:30.106Z,3.37
2018-07-04T05:44:24.006Z,3.30
2018-07-04T05:47:18.109Z,3.37
2018-07-04T05:50:20.039Z,4.30
2018-07-04T05:56:20.880Z,4.57
2018-07-04T05:59:14.678Z,4.47
2018-07-04T06:02:08.987Z,4.23
2018-07-04T06:05:02.889Z,4.67
2018-07-04T06:07:56.566Z,4.17
2018-07-04T06:10:50.109Z,4.77
2018-07-04T06:13:37.675Z,3.63
2018-07-04T06:16:31.313Z,3.90
2018-07-04T06:19:24.996Z,3.27
2018-07-04T06:22:18.487Z,3.50
2018-07-04T06:25:12.270Z,4.03
2018-07-04T06:28:05.890Z,3.23
2018-07-04T06:30:59.423Z,3.23
2018-07-04T06:33:53.098Z,4.63
2018-07-04T06:36:46.908Z,4.37
2018-07-04T06:39:22.607Z,4.23
2018-07-04T06:41:52.018Z,4.47
2018-07-04T06:44:20.921Z,5.00
2018-07-04T06:46:52.303Z,5.30
2018-07-04T06:49:23.488Z,5.80
2018-07-04T06:51:52.388Z,6.13
2018-07-04T06:54:24.612Z,5.57
2018-07-04T06:56:53.516Z,5.73
2018-07-04T06:59:25.176Z,5.03
2018-07-04T07:01:54.075Z,4.60
2018-07-04T07:04:48.582Z,4.30
2018-07-04T07:07:42.252Z,3.93
2018-07-04T07:10:38.360Z,4.10
2018-07-04T07:13:31.743Z,4.37
2018-07-04T07:16:27.305Z,7.30
2018-07-04T07:19:20.755Z,4.43
2018-07-04T07:22:14.364Z,4.73
2018-07-04T07:25:08.040Z,5.50
2018-07-04T07:28:01.649Z,5.20
2018-07-04T07:30:55.830Z,5.40
2018-07-04T07:33:49.560Z,4.97
2018-07-04T07:36:43.172Z,4.20
2018-07-04T07:39:36.677Z,4.53
2018-07-04T07:42:34.978Z,5.77
2018-07-04T07:45:28.498Z,5.37
2018-07-04T07:48:22.140Z,5.20
2018-07-04T07:51:15.794Z,5.10
2018-07-04T07:54:10.232Z,4.67
2018-07-04T07:57:04.683Z,5.07
2018-07-04T07:59:52.274Z,4.57
2018-07-04T08:02:45.896Z,4.87
2018-07-04T08:05:39.553Z,4.57
2018-07-04T08:08:33.173Z,5.00
2018-07-04T08:11:26.633Z,4.90
2018-07-04T08:14:20.173Z,4.00
2018-07-04T08:17:13.899Z,4.83
2018-07-04T08:20:07.747Z,4.73
2018-07-04T08:23:02.048Z,5.00
2018-07-04T08:25:55.571Z,4.80
2018-07-04T08:28:49.935Z,4.57
2018-07-04T08:31:43.693Z,5.43
2018-07-04T08:34:38.597Z,4.90
2018-07-04T08:37:37.296Z,5.13
2018-07-04T08:40:32.046Z,4.13
2018-07-04T08:43:25.729Z,5.60
2018-07-04T08:46:20.757Z,3.37
2018-07-04T08:49:14.433Z,3.93
2018-07-04T08:52:08.142Z,3.83
2018-07-04T08:55:01.668Z,4.47
2018-07-04T08:57:55.378Z,4.47
2018-07-04T09:00:48.966Z,4.03
2018-07-04T09:03:42.593Z,3.47
2018-07-04T09:06:36.905Z,3.57
2018-07-04T09:09:30.556Z,3.97
2018-07-04T09:12:18.090Z,3.53
2018-07-04T09:15:05.675Z,4.53
2018-07-04T09:17:59.172Z,3.70
2018-07-04T09:20:52.800Z,2.87
2018-07-04T09:23:46.309Z,3.83
2018-07-04T09:26:39.882Z,4.43
2018-07-04T09:29:33.603Z,4.20
2018-07-04T09:32:32.897Z,4.57
2018-07-04T09:35:28.317Z,3.87
2018-07-04T09:38:26.596Z,4.07
2018-07-04T09:41:23.108Z,4.00
2018-07-04T09:44:21.328Z,4.37
2018-07-04T09:47:16.271Z,3.40
2018-07-04T09:50:10.375Z,4.83
2018-07-04T09:53:03.825Z,4.17
2018-07-04T09:55:57.250Z,4.17
2018-07-04T09:58:51.059Z,3.60
2018-07-04T10:01:38.781Z,2.93
2018-07-04T10:04:32.204Z,3.87
2018-07-04T10:07:25.908Z,3.03
2018-07-04T10:10:20.203Z,3.77
2018-07-04T10:13:17.151Z,3.73
2018-07-04T10:16:10.721Z,3.60
2018-07-04T10:19:04.320Z,3.30
2018-07-04T10:21:58.093Z,2.87
2018-07-04T10:24:51.746Z,2.93
2018-07-04T10:27:45.240Z,3.53
2018-07-04T10:30:38.954Z,3.70
2018-07-04T10:33:32.519Z,2.93
2018-07-04T10:36:26.107Z,2.43
2018-07-04T10:39:19.707Z,2.73
2018-07-04T10:42:13.558Z,2.87
2018-07-04T10:45:07.158Z,2.53
2018-07-04T10:48:00.978Z,3.20
2018-07-04T10:50:54.906Z,2.43
2018-07-04T10:53:48.746Z,2.53
2018-07-04T10:56:42.389Z,2.80
2018-07-04T10:59:35.933Z,2.67
2018-07-04T11:02:32.768Z,3.20
2018-07-04T11:05:27.758Z,3.07
2018-07-04T11:08:21.554Z,3.07
2018-07-04T11:11:16.917Z,2.57
2018-07-04T11:14:05.767Z,2.67
2018-07-04T11:16:59.652Z,2.60
2018-07-04T11:19:53.350Z,2.00
2018-07-04T11:22:49.317Z,2.20
2018-07-04T11:25:42.912Z,2.77
2018-07-04T11:28:36.583Z,2.40
2018-07-04T11:31:31.415Z,4.37
2018-07-04T11:34:25.313Z,4.73
2018-07-04T11:37:18.960Z,2.67
2018-07-04T11:40:12.596Z,2.30
2018-07-04T11:43:06.127Z,2.70
2018-07-04T11:45:59.573Z,3.00
2018-07-04T11:48:28.646Z,2.73
2018-07-04T11:50:57.452Z,2.63
2018-07-04T11:53:26.237Z,2.10
2018-07-04T11:55:55.060Z,2.73
2018-07-04T11:58:24.056Z,2.30
2018-07-04T12:00:55.849Z,2.70
2018-07-04T12:03:26.162Z,2.20
2018-07-04T12:06:13.648Z,3.07
2018-07-04T12:08:48.676Z,2.50
2018-07-04T12:11:17.487Z,2.10
2018-07-04T12:13:46.333Z,2.27
2018-07-04T12:16:15.161Z,2.17
2018-07-04T12:18:43.993Z,2.47
2018-07-04T12:21:12.815Z,3.17
2018-07-04T12:23:49.081Z,2.30
2018-07-04T12:26:17.887Z,2.13
2018-07-04T12:28:46.693Z,1.80
2018-07-04T12:31:15.476Z,1.70
2018-07-04T12:33:44.332Z,1.60
2018-07-04T12:36:18.861Z,1.70
2018-07-04T12:38:47.684Z,1.70
2018-07-04T12:41:16.486Z,1.70
2018-07-04T12:43:45.301Z,1.40
2018-07-04T12:46:14.284Z,1.57
2018-07-04T12:48:43.069Z,1.43
2018-07-04T12:51:11.953Z,1.77
2018-07-04T12:53:41.195Z,1.40
2018-07-04T12:56:28.529Z,1.67
2018-07-04T12:59:23.372Z,1.70
2018-07-04T13:02:18.051Z,1.37
2018-07-04T13:05:08.524Z,1.80
2018-07-04T13:08:02.210Z,1.90
2018-07-04T13:10:55.941Z,2.20
2018-07-04T13:13:49.679Z,2.10
2018-07-04T13:16:43.385Z,1.80
2018-07-04T13:19:37.213Z,2.40
2018-07-04T13:22:31.137Z,2.43
2018-07-04T13:25:24.969Z,2.40
2018-07-04T13:28:18.694Z,2.20
2018-07-04T13:31:12.324Z,2.17
2018-07-04T13:34:05.955Z,2.27
2018-07-04T13:36:59.436Z,2.20
2018-07-04T13:39:53.600Z,2.67
2018-07-04T13:42:47.505Z,2.00
2018-07-04T13:45:41.134Z,1.47
2018-07-04T13:48:34.902Z,2.30
2018-07-04T13:51:28.620Z,2.00
2018-07-04T13:54:22.242Z,2.17
2018-07-04T13:57:15.996Z,2.10
2018-07-04T14:00:09.565Z,2.30
2018-07-04T14:03:03.608Z,2.33
2018-07-04T14:05:57.624Z,2.10
2018-07-04T14:08:51.587Z,1.87
2018-07-04T14:11:46.328Z,1.97
2018-07-04T14:14:40.100Z,2.27
2018-07-04T14:17:33.786Z,2.30
2018-07-04T14:20:27.385Z,2.27
2018-07-04T14:23:21.249Z,2.40
2018-07-04T14:26:15.721Z,2.20
2018-07-04T14:29:09.371Z,2.27
2018-07-04T14:32:03.234Z,2.13
2018-07-04T14:34:57.128Z,2.63
2018-07-04T14:37:50.927Z,1.93
2018-07-04T14:40:52.628Z,2.37
2018-07-04T14:46:52.735Z,2.53
2018-07-04T14:49:40.321Z,2.30
2018-07-04T14:52:33.843Z,2.40
2018-07-04T14:55:27.571Z,2.93
2018-07-04T14:58:22.967Z,2.23
2018-07-04T15:01:18.725Z,2.67
2018-07-04T15:04:12.812Z,2.60
2018-07-04T15:07:09.234Z,2.27
2018-07-04T15:10:04.021Z,2.53
2018-07-04T15:12:58.005Z,2.40
2018-07-04T15:15:51.900Z,2.83
2018-07-04T15:18:45.848Z,2.57
2018-07-04T15:21:40.498Z,2.50
2018-07-04T15:24:34.198Z,2.50
2018-07-04T15:27:27.911Z,2.57
2018-07-04T15:30:26.998Z,2.53
2018-07-04T15:37:20.211Z,2.47
2018-07-04T15:40:14.059Z,3.00
2018-07-04T15:43:07.727Z,2.27
2018-07-04T15:46:01.637Z,2.40
2018-07-04T15:48:55.386Z,2.40
2018-07-04T15:51:48.923Z,2.80
2018-07-04T15:54:42.519Z,2.70
2018-07-04T15:57:36.455Z,2.57
2018-07-04T16:00:37.623Z,2.37
2018-07-04T16:03:30.947Z,3.00
2018-07-04T16:06:24.747Z,3.00
2018-07-04T16:09:18.340Z,3.20
2018-07-04T16:12:12.303Z,3.30
2018-07-04T16:15:05.801Z,3.57
2018-07-04T16:17:59.563Z,3.97
2018-07-04T16:20:59.382Z,3.03
2018-07-04T16:23:47.184Z,3.73
2018-07-04T16:26:40.802Z,4.07
2018-07-04T16:32:45.897Z,4.63
2018-07-04T16:35:45.854Z,4.50
2018-07-04T16:41:44.267Z,5.43
2018-07-04T16:44:31.732Z,3.93
2018-07-04T16:47:25.463Z,3.03
2018-07-04T16:50:22.036Z,3.90
2018-07-04T16:53:18.341Z,4.30
2018-07-04T16:56:14.363Z,4.80
2018-07-04T16:59:12.429Z,4.23
2018-07-04T17:02:00.091Z,4.00
2018-07-04T17:04:53.652Z,4.17
2018-07-04T17:07:47.248Z,4.67
2018-07-04T17:10:41.048Z,3.80
2018-07-04T17:13:34.674Z,4.63
2018-07-04T17:16:28.400Z,3.90
2018-07-04T17:19:15.882Z,3.77
2018-07-04T17:22:09.666Z,3.73
2018-07-04T17:25:03.197Z,3.87
2018-07-04T17:27:56.750Z,3.83
2018-07-04T17:30:52.051Z,3.73
2018-07-04T17:33:45.414Z,4.97
2018-07-04T17:36:39.076Z,4.47
2018-07-04T17:39:26.562Z,4.70
2018-07-04T17:42:20.149Z,5.60
2018-07-04T17:45:13.851Z,4.10
2018-07-04T17:48:07.580Z,4.93
2018-07-04T17:51:01.342Z,4.17
2018-07-04T17:53:55.134Z,4.57
2018-07-04T17:56:43.186Z,4.93
2018-07-04T17:59:36.576Z,4.03
2018-07-04T18:02:30.246Z,4.00
2018-07-04T18:05:23.845Z,4.13
2018-07-04T18:08:17.240Z,4.37
2018-07-04T18:11:10.773Z,3.83
2018-07-04T18:14:04.377Z,4.27
2018-07-04T18:16:57.901Z,4.33
2018-07-04T18:19:51.441Z,4.50
2018-07-04T18:22:45.192Z,4.50
2018-07-04T18:25:39.100Z,4.53
2018-07-04T18:28:32.605Z,4.23
2018-07-04T18:35:23.422Z,3.87
2018-07-04T18:38:17.014Z,4.30
2018-07-04T18:41:10.486Z,4.23
2018-07-04T18:44:04.110Z,4.10
2018-07-04T18:46:57.673Z,3.90
2018-07-04T18:49:52.058Z,4.83
2018-07-04T18:52:45.590Z,4.77
2018-07-04T18:55:39.380Z,4.43
2018-07-04T18:58:32.930Z,3.60
2018-07-04T19:01:26.828Z,3.93
2018-07-04T19:04:20.035Z,4.30
2018-07-04T19:07:13.623Z,4.20
2018-07-04T19:10:01.349Z,4.60
2018-07-04T19:12:54.978Z,4.20
2018-07-04T19:15:48.762Z,4.57
2018-07-04T19:18:42.461Z,3.70
2018-07-04T19:21:35.968Z,4.07
2018-07-04T19:24:31.708Z,4.70
2018-07-04T19:27:30.884Z,4.43
2018-07-04T19:30:27.487Z,3.83
2018-07-04T19:33:17.669Z,4.93
2018-07-04T19:36:11.604Z,4.10
2018-07-04T19:39:05.982Z,3.97
2018-07-04T19:41:59.730Z,4.53
2018-07-04T19:44:53.595Z,4.93
2018-07-04T19:47:50.209Z,4.00
2018-07-04T19:50:43.943Z,4.37
2018-07-04T19:53:37.424Z,4.83
2018-07-04T19:56:31.183Z,4.93
2018-07-04T19:59:24.697Z,4.50
2018-07-04T20:02:18.237Z,4.30
2018-07-04T20:05:12.382Z,4.40
2018-07-04T20:08:06.131Z,4.83
2018-07-04T20:11:01.472Z,5.00
2018-07-04T20:13:55.705Z,5.13
2018-07-04T20:16:43.261Z,5.73
2018-07-04T20:19:36.798Z,4.77
2018-07-04T20:22:30.321Z,5.63
2018-07-04T20:25:24.019Z,5.07
2018-07-04T20:28:18.066Z,4.80
2018-07-04T20:31:12.854Z,5.50
2018-07-04T20:34:06.269Z,5.03
2018-07-04T20:37:00.157Z,5.23
2018-07-04T20:39:53.764Z,5.10
2018-07-04T20:42:47.454Z,4.73
2018-07-04T20:45:42.496Z,5.10
2018-07-04T20:48:37.973Z,4.80
2018-07-04T20:51:33.328Z,5.37
2018-07-04T20:54:28.645Z,5.40
2018-07-04T20:57:24.184Z,6.00
2018-07-04T21:00:19.083Z,5.20
2018-07-04T21:03:12.652Z,5.20
2018-07-04T21:06:06.263Z,5.30
2018-07-04T21:08:59.751Z,5.20
2018-07-04T21:12:00.125Z,4.87
2018-07-04T21:14:54.236Z,5.80
2018-07-04T21:17:49.252Z,5.17
2018-07-04T21:20:44.668Z,5.90
2018-07-04T21:23:39.214Z,5.57
2018-07-04T21:26:35.149Z,5.33
2018-07-04T21:29:30.863Z,5.70
2018-07-04T21:32:24.556Z,5.33
2018-07-04T21:35:19.046Z,5.47
2018-07-04T21:38:14.228Z,5.23
2018-07-04T21:41:10.185Z,5.40
2018-07-04T21:44:05.166Z,5.47
2018-07-04T21:46:58.893Z,4.97
2018-07-04T21:49:52.491Z,5.10
2018-07-04T21:52:48.228Z,5.60
2018-07-04T21:55:43.419Z,5.83
2018-07-04T21:58:38.910Z,6.40
2018-07-04T22:01:33.943Z,5.73
2018-07-04T22:04:29.090Z,5.50
2018-07-04T22:07:24.194Z,6.40
2018-07-04T22:10:20.392Z,5.10
2018-07-04T22:13:15.841Z,5.50
2018-07-04T22:16:11.436Z,5.30
2018-07-04T22:19:07.134Z,5.60
2018-07-04T22:22:02.793Z,5.30
2018-07-04T22:24:58.479Z,5.23
2018-07-04T22:27:54.775Z,5.23
2018-07-04T22:30:48.356Z,6.03
2018-07-04T22:33:41.987Z,5.57
2018-07-04T22:36:35.888Z,4.83
2018-07-04T22:39:30.100Z,4.77
2018-07-04T22:42:25.508Z,5.33
2018-07-04T22:45:21.255Z,6.03
2018-07-04T22:48:14.880Z,6.30
2018-07-04T22:51:09.532Z,6.33
2018-07-04T22:54:05.318Z,5.17
2018-07-04T22:57:00.807Z,5.17
2018-07-04T22:59:56.286Z,6.10
2018-07-04T23:02:51.810Z,6.30
2018-07-04T23:05:45.366Z,5.17
2018-07-04T23:08:41.139Z,5.97
2018-07-04T23:11:36.432Z,5.47
2018-07-04T23:14:25.946Z,6.10
2018-07-04T23:17:19.626Z,6.37
2018-07-04T23:20:14.982Z,6.53
2018-07-04T23:23:10.681Z,6.53
2018-07-04T23:26:04.325Z,6.93
2018-07-04T23:29:00.209Z,6.93
2018-07-04T23:31:55.685Z,6.60
2018-07-04T23:34:51.381Z,6.03
2018-07-04T23:37:46.739Z,5.83
2018-07-04T23:40:34.955Z,6.00
2018-07-04T23:43:30.606Z,6.53
2018-07-04T23:46:26.365Z,6.60
2018-07-04T23:49:22.671Z,6.57
2018-07-04T23:52:18.258Z,6.73
2018-07-04T23:55:07.846Z,6.53
2018-07-04T23:58:03.528Z,5.90
